createdAt,value
2022-11-14T00:00:19.570Z,12.25
2022-11-14T00:03:24.128Z,11.27
2022-11-14T00:06:28.725Z,12.55
2022-11-14T00:09:33.032Z,12.15
2022-11-14T00:12:37.198Z,11.73
2022-11-14T00:15:41.753Z,12.13
2022-11-14T00:18:45.787Z,11.13
2022-11-14T00:21:52.469Z,12.10
2022-11-14T00:24:56.730Z,12.00
2022-11-14T00:28:00.915Z,10.77
2022-11-14T00:31:05.245Z,9.32
2022-11-14T00:34:09.636Z,10.82
2022-11-14T00:37:14.151Z,9.15
2022-11-14T00:40:18.651Z,8.35
2022-11-14T00:43:22.945Z,9.63
2022-11-14T00:46:27.240Z,9.88
2022-11-14T00:49:31.546Z,9.68
2022-11-14T00:52:35.988Z,9.00
2022-11-14T00:55:42.416Z,8.30
2022-11-14T00:58:46.752Z,8.05
2022-11-14T01:01:55.295Z,8.85
2022-11-14T01:05:02.857Z,8.07
2022-11-14T01:08:07.010Z,9.23
2022-11-14T01:11:18.337Z,8.82
2022-11-14T01:14:22.730Z,7.15
2022-11-14T01:17:28.603Z,7.18
2022-11-14T01:20:32.555Z,7.05
2022-11-14T01:23:37.350Z,7.43
2022-11-14T01:26:41.846Z,6.57
2022-11-14T01:29:46.265Z,5.95
2022-11-14T01:32:50.513Z,6.70
2022-11-14T01:35:54.759Z,6.53
2022-11-14T01:38:59.289Z,6.68
2022-11-14T01:42:03.808Z,6.10
2022-11-14T01:45:46.105Z,6.57
2022-11-14T01:49:29.592Z,6.90
2022-11-14T01:52:39.038Z,6.43
2022-11-14T01:55:43.604Z,6.53
2022-11-14T01:58:54.484Z,6.18
2022-11-14T02:02:03.869Z,5.93
2022-11-14T02:05:12.773Z,6.73
2022-11-14T02:08:18.053Z,7.05
2022-11-14T02:11:22.215Z,5.95
2022-11-14T02:14:27.583Z,5.97
2022-11-14T02:17:32.638Z,6.40
2022-11-14T02:20:43.046Z,5.68
2022-11-14T02:26:51.360Z,5.70
2022-11-14T02:30:04.585Z,5.40
2022-11-14T02:33:11.350Z,6.35
2022-11-14T02:36:15.988Z,5.35
2022-11-14T02:39:20.741Z,4.88
2022-11-14T02:42:25.187Z,4.97
2022-11-14T02:45:29.448Z,5.07
2022-11-14T02:48:33.911Z,4.60
2022-11-14T02:51:38.684Z,5.57
2022-11-14T02:54:43.151Z,5.10
2022-11-14T02:57:47.779Z,5.35
2022-11-14T03:01:18.571Z,4.38
2022-11-14T03:04:16.298Z,4.15
2022-11-14T03:07:20.842Z,4.75
2022-11-14T03:10:25.352Z,4.20
2022-11-14T03:13:30.295Z,4.32
2022-11-14T03:16:34.615Z,3.60
2022-11-14T03:19:39.195Z,3.60
2022-11-14T03:22:43.298Z,4.07
2022-11-14T03:25:47.585Z,3.50
2022-11-14T03:28:52.232Z,3.38
2022-11-14T03:31:56.599Z,3.63
2022-11-14T03:35:00.976Z,3.97
2022-11-14T03:38:05.177Z,4.03
2022-11-14T03:41:09.485Z,4.35
2022-11-14T03:44:13.928Z,3.17
2022-11-14T03:47:18.262Z,3.30
2022-11-14T03:50:22.832Z,3.17
2022-11-14T03:53:28.309Z,2.83
2022-11-14T03:56:32.651Z,2.92
2022-11-14T03:59:37.232Z,2.88
2022-11-14T04:02:42.014Z,3.10
2022-11-14T04:05:46.524Z,3.15
2022-11-14T04:08:51.889Z,3.33
2022-11-14T04:11:55.919Z,3.25
2022-11-14T04:15:00.252Z,2.70
2022-11-14T04:18:04.909Z,3.50
2022-11-14T04:21:09.420Z,2.92
2022-11-14T04:24:13.741Z,3.05
2022-11-14T04:27:18.041Z,2.70
2022-11-14T04:30:22.362Z,3.13
2022-11-14T04:33:27.114Z,2.60
2022-11-14T04:36:31.913Z,2.90
2022-11-14T04:39:36.462Z,3.35
2022-11-14T04:42:40.677Z,2.97
2022-11-14T04:45:44.972Z,3.10
2022-11-14T04:48:49.244Z,3.25
2022-11-14T04:51:53.724Z,3.67
2022-11-14T04:54:58.097Z,3.90
2022-11-14T04:58:02.639Z,4.32
2022-11-14T05:01:11.446Z,6.20
2022-11-14T05:04:15.986Z,7.78
2022-11-14T05:07:20.406Z,7.15
2022-11-14T05:10:24.906Z,6.38
2022-11-14T05:13:29.332Z,8.15
2022-11-14T05:16:33.763Z,9.82
2022-11-14T05:19:37.938Z,8.23
2022-11-14T05:22:42.333Z,7.88
2022-11-14T05:25:47.311Z,14.43
2022-11-14T05:28:51.696Z,10.93
2022-11-14T05:31:56.180Z,7.97
2022-11-14T05:35:00.260Z,10.27
2022-11-14T05:38:04.629Z,11.63
2022-11-14T05:41:11.950Z,12.13
2022-11-14T05:44:16.066Z,13.45
2022-11-14T05:47:20.715Z,13.40
2022-11-14T05:50:25.198Z,15.75
2022-11-14T05:53:30.651Z,15.60
2022-11-14T05:56:35.003Z,14.52
2022-11-14T05:59:39.282Z,17.33
2022-11-14T06:02:46.023Z,15.20
2022-11-14T06:05:50.145Z,15.50
2022-11-14T06:08:54.617Z,16.75
2022-11-14T06:11:59.109Z,14.48
2022-11-14T06:15:03.708Z,16.92
2022-11-14T06:18:07.714Z,16.27
2022-11-14T06:21:12.352Z,16.80
2022-11-14T06:24:17.045Z,14.25
2022-11-14T06:27:21.622Z,13.38
2022-11-14T06:30:25.736Z,15.45
2022-11-14T06:33:34.297Z,18.42
2022-11-14T06:36:39.011Z,10.70
2022-11-14T06:39:43.490Z,12.60
2022-11-14T06:42:48.086Z,10.13
2022-11-14T06:45:55.872Z,8.60
2022-11-14T06:48:59.833Z,8.95
2022-11-14T06:52:04.493Z,9.10
2022-11-14T06:55:08.957Z,7.47
2022-11-14T06:58:13.457Z,8.43
2022-11-14T07:01:23.332Z,7.72
2022-11-14T07:04:27.364Z,7.55
2022-11-14T07:07:31.879Z,7.13
2022-11-14T07:10:36.393Z,8.02
2022-11-14T07:13:40.679Z,6.80
2022-11-14T07:16:45.137Z,7.40
2022-11-14T07:19:49.577Z,7.53
2022-11-14T07:22:54.184Z,6.68
2022-11-14T07:26:03.161Z,7.35
2022-11-14T07:29:07.512Z,7.55
2022-11-14T07:32:11.993Z,5.88
2022-11-14T07:35:16.444Z,5.80
2022-11-14T07:38:20.860Z,5.75
2022-11-14T07:41:25.332Z,6.10
2022-11-14T07:44:29.775Z,5.32
2022-11-14T07:47:34.116Z,7.25
2022-11-14T07:50:39.021Z,7.32
2022-11-14T07:53:43.383Z,7.38
2022-11-14T07:56:48.140Z,8.27
2022-11-14T07:59:52.616Z,5.78
2022-11-14T08:02:57.166Z,5.75
2022-11-14T08:06:02.311Z,6.40
2022-11-14T08:09:06.828Z,4.90
2022-11-14T08:12:11.243Z,6.20
2022-11-14T08:15:15.771Z,6.18
2022-11-14T08:18:20.558Z,5.20
2022-11-14T08:21:24.775Z,5.78
2022-11-14T08:24:29.091Z,5.35
2022-11-14T08:27:33.487Z,6.32
2022-11-14T08:30:38.011Z,5.97
2022-11-14T08:33:42.675Z,6.63
2022-11-14T08:36:46.608Z,6.70
2022-11-14T08:39:50.988Z,7.85
2022-11-14T08:43:02.407Z,7.50
2022-11-14T08:46:06.565Z,7.55
2022-11-14T08:49:10.968Z,8.10
2022-11-14T08:52:16.807Z,8.68
2022-11-14T08:55:21.965Z,8.07
2022-11-14T08:58:31.372Z,8.20
2022-11-14T09:01:36.499Z,8.90
2022-11-14T09:04:40.894Z,8.80
2022-11-14T09:07:45.141Z,8.48
2022-11-14T09:10:49.854Z,8.35
2022-11-14T09:13:54.274Z,8.80
2022-11-14T09:17:03.133Z,9.43
2022-11-14T09:20:09.791Z,7.68
2022-11-14T09:23:14.491Z,7.50
2022-11-14T09:26:18.962Z,8.55
2022-11-14T09:29:23.630Z,10.50
2022-11-14T09:32:27.975Z,9.95
2022-11-14T09:35:32.763Z,8.93
2022-11-14T09:38:38.680Z,9.23
2022-11-14T09:42:17.107Z,9.13
2022-11-14T09:45:22.106Z,8.80
2022-11-14T09:48:30.372Z,9.70
2022-11-14T09:51:44.666Z,8.68
2022-11-14T09:54:58.311Z,8.88
2022-11-14T09:58:04.130Z,7.55
2022-11-14T10:01:32.574Z,6.57
2022-11-14T10:05:16.105Z,6.10
2022-11-14T10:08:28.850Z,6.20
2022-11-14T10:11:39.169Z,9.00
2022-11-14T10:14:43.307Z,8.77
2022-11-14T10:17:50.738Z,8.45
2022-11-14T10:21:19.220Z,9.65
2022-11-14T10:24:54.436Z,10.95
2022-11-14T10:28:28.332Z,8.68
2022-11-14T10:32:14.669Z,8.68
2022-11-14T10:35:41.707Z,9.15
2022-11-14T10:38:54.141Z,8.90
2022-11-14T10:42:07.733Z,7.00
2022-11-14T10:45:18.611Z,7.70
2022-11-14T10:48:49.188Z,7.68
2022-11-14T10:51:57.215Z,9.23
2022-11-14T10:55:14.624Z,7.10
2022-11-14T10:58:19.138Z,7.05
2022-11-14T11:01:39.807Z,6.35
2022-11-14T11:04:45.357Z,6.22
2022-11-14T11:08:36.128Z,6.40
2022-11-14T11:11:32.634Z,7.07
2022-11-14T11:14:37.169Z,7.22
2022-11-14T11:17:57.685Z,7.20
2022-11-14T11:21:07.168Z,7.68
2022-11-14T11:24:11.423Z,7.60
2022-11-14T11:27:24.294Z,8.10
2022-11-14T11:30:28.523Z,7.43
2022-11-14T11:33:34.745Z,7.25
2022-11-14T11:36:48.557Z,8.73
2022-11-14T11:39:59.456Z,10.27
2022-11-14T11:43:38.886Z,8.13
2022-11-14T11:49:56.786Z,8.10
2022-11-14T11:53:25.035Z,7.70
2022-11-14T11:56:31.792Z,7.18
2022-11-14T11:59:49.762Z,7.45
2022-11-14T12:02:54.895Z,7.15
2022-11-14T12:06:20.310Z,6.97
2022-11-14T12:10:03.180Z,8.32
2022-11-14T12:13:29.979Z,6.97
2022-11-14T12:17:02.906Z,6.97
2022-11-14T12:20:46.849Z,7.10
2022-11-14T12:24:04.603Z,6.93
2022-11-14T12:27:50.787Z,7.15
2022-11-14T12:30:59.139Z,6.75
2022-11-14T12:34:16.076Z,6.70
2022-11-14T12:37:32.634Z,6.65
2022-11-14T12:40:42.765Z,6.88
2022-11-14T12:43:47.602Z,7.45
2022-11-14T12:47:04.838Z,7.22
2022-11-14T12:50:42.451Z,7.35
2022-11-14T12:53:46.833Z,7.90
2022-11-14T12:56:59.945Z,6.78
2022-11-14T13:00:07.547Z,7.13
2022-11-14T13:03:27.538Z,6.65
2022-11-14T13:06:45.295Z,6.70
2022-11-14T13:10:15.504Z,6.82
2022-11-14T13:17:01.144Z,7.47
2022-11-14T13:20:46.317Z,6.80
2022-11-14T13:23:55.626Z,6.25
2022-11-14T13:27:45.147Z,6.77
2022-11-14T13:31:15.924Z,6.68
2022-11-14T13:34:45.047Z,9.20
2022-11-14T13:38:27.190Z,6.07
2022-11-14T13:41:47.912Z,5.68
2022-11-14T13:45:20.858Z,5.50
2022-11-14T13:48:55.791Z,7.22
2022-11-14T13:52:00.339Z,5.70
2022-11-14T13:55:05.303Z,5.93
2022-11-14T13:58:17.807Z,5.90
2022-11-14T14:02:02.229Z,5.47
2022-11-14T14:05:42.201Z,5.47
2022-11-14T14:08:58.941Z,6.63
2022-11-14T14:12:21.998Z,6.55
2022-11-14T14:15:29.279Z,6.18
2022-11-14T14:18:48.990Z,5.18
2022-11-14T14:22:30.219Z,6.38
2022-11-14T14:26:04.858Z,8.60
2022-11-14T14:29:26.338Z,5.82
2022-11-14T14:32:30.531Z,5.70
2022-11-14T14:35:40.394Z,5.10
2022-11-14T14:38:46.389Z,6.32
2022-11-14T14:41:51.224Z,11.85
2022-11-14T14:44:56.321Z,27.92
2022-11-14T14:48:12.300Z,27.70
2022-11-14T14:51:30.433Z,29.30
2022-11-14T14:54:34.832Z,21.65
2022-11-14T14:57:39.186Z,12.68
2022-11-14T15:00:59.127Z,9.35
2022-11-14T15:04:07.051Z,10.43
2022-11-14T15:07:23.589Z,8.98
2022-11-14T15:10:30.135Z,7.00
2022-11-14T15:13:34.747Z,7.20
2022-11-14T15:16:39.791Z,5.72
2022-11-14T15:19:46.564Z,6.70
2022-11-14T15:23:20.310Z,6.93
2022-11-14T15:26:24.900Z,7.32
2022-11-14T15:29:31.531Z,5.03
2022-11-14T15:32:35.847Z,6.40
2022-11-14T15:35:40.919Z,5.22
2022-11-14T15:39:20.654Z,5.93
2022-11-14T15:42:26.486Z,7.65
2022-11-14T15:45:40.823Z,6.25
2022-11-14T15:48:45.022Z,4.47
2022-11-14T15:51:58.295Z,5.00
2022-11-14T15:55:03.673Z,5.43
2022-11-14T15:58:27.929Z,5.00
2022-11-14T16:01:33.118Z,4.55
2022-11-14T16:04:45.973Z,5.10
2022-11-14T16:07:52.114Z,5.25
2022-11-14T16:10:57.216Z,4.70
2022-11-14T16:14:01.819Z,5.25
2022-11-14T16:17:09.701Z,5.82
2022-11-14T16:20:16.924Z,4.80
2022-11-14T16:23:21.130Z,4.32
2022-11-14T16:26:26.328Z,4.30
2022-11-14T16:29:31.231Z,4.35
2022-11-14T16:32:38.111Z,4.63
2022-11-14T16:35:42.723Z,4.20
2022-11-14T16:38:51.959Z,3.97
2022-11-14T16:42:02.616Z,5.47
2022-11-14T16:45:08.446Z,4.72
2022-11-14T16:48:16.587Z,4.40
2022-11-14T16:51:47.849Z,4.13
2022-11-14T16:54:46.979Z,4.50
2022-11-14T16:57:51.269Z,4.50
2022-11-14T17:00:56.924Z,3.97
2022-11-14T17:04:02.149Z,3.60
2022-11-14T17:07:07.783Z,6.50
2022-11-14T17:10:12.286Z,4.18
2022-11-14T17:13:24.043Z,4.00
2022-11-14T17:16:29.207Z,4.63
2022-11-14T17:19:33.328Z,4.00
2022-11-14T17:22:38.543Z,5.72
2022-11-14T17:25:43.763Z,4.80
2022-11-14T17:28:49.406Z,4.43
2022-11-14T17:31:53.970Z,5.10
2022-11-14T17:34:58.213Z,3.95
2022-11-14T17:38:02.708Z,3.88
2022-11-14T17:41:09.170Z,3.88
2022-11-14T17:44:14.099Z,4.40
2022-11-14T17:47:19.661Z,4.32
2022-11-14T17:50:24.018Z,4.80
2022-11-14T17:53:33.981Z,4.13
2022-11-14T17:56:44.304Z,3.97
2022-11-14T18:00:03.203Z,3.83
2022-11-14T18:03:07.447Z,4.22
2022-11-14T18:06:15.238Z,3.72
2022-11-14T18:09:19.438Z,3.03
2022-11-14T18:12:24.263Z,3.75
2022-11-14T18:15:29.136Z,2.75
2022-11-14T18:18:35.590Z,3.67
2022-11-14T18:21:43.070Z,3.50
2022-11-14T18:24:47.922Z,4.22
2022-11-14T18:27:52.352Z,3.85
2022-11-14T18:30:59.352Z,8.02
2022-11-14T18:34:04.002Z,3.72
2022-11-14T18:37:08.381Z,12.82
2022-11-14T18:40:16.446Z,12.95
2022-11-14T18:43:22.630Z,6.95
2022-11-14T18:46:30.857Z,4.32
2022-11-14T18:49:37.297Z,4.38
2022-11-14T18:52:41.916Z,4.20
2022-11-14T18:55:47.575Z,4.82
2022-11-14T18:58:56.844Z,4.93
2022-11-14T19:02:01.495Z,3.78
2022-11-14T19:05:06.135Z,4.60
2022-11-14T19:08:11.345Z,4.72
2022-11-14T19:11:37.437Z,5.07
2022-11-14T19:14:43.559Z,4.60
2022-11-14T19:17:49.464Z,4.20
2022-11-14T19:21:02.760Z,4.38
2022-11-14T19:24:07.789Z,4.68
2022-11-14T19:27:12.723Z,4.25
2022-11-14T19:30:18.085Z,4.22
2022-11-14T19:33:22.861Z,4.70
2022-11-14T19:36:57.772Z,5.53
2022-11-14T19:39:55.381Z,6.05
2022-11-14T19:43:02.924Z,6.30
2022-11-14T19:46:07.447Z,5.70
2022-11-14T19:49:12.194Z,5.13
2022-11-14T19:52:18.156Z,12.15
2022-11-14T19:55:22.640Z,4.78
2022-11-14T19:58:26.962Z,6.47
2022-11-14T20:01:31.360Z,4.28
2022-11-14T20:04:38.020Z,10.00
2022-11-14T20:07:42.889Z,4.85
2022-11-14T20:11:00.103Z,4.53
2022-11-14T20:14:05.644Z,4.18
2022-11-14T20:17:10.347Z,4.75
2022-11-14T20:20:15.814Z,3.70
2022-11-14T20:23:21.352Z,4.28
2022-11-14T20:26:27.804Z,3.88
2022-11-14T20:29:32.503Z,3.35
2022-11-14T20:32:36.860Z,4.20
2022-11-14T20:35:41.520Z,4.50
2022-11-14T20:38:46.171Z,5.40
2022-11-14T20:41:52.142Z,3.75
2022-11-14T20:44:57.383Z,5.13
2022-11-14T20:48:01.856Z,5.70
2022-11-14T20:51:29.575Z,3.97
2022-11-14T20:54:33.984Z,5.03
2022-11-14T20:57:38.880Z,4.10
2022-11-14T21:00:43.457Z,5.13
2022-11-14T21:03:49.633Z,3.83
2022-11-14T21:06:54.246Z,3.70
2022-11-14T21:10:17.332Z,4.03
2022-11-14T21:13:42.428Z,3.60
2022-11-14T21:16:47.620Z,3.42
2022-11-14T21:19:52.085Z,4.38
2022-11-14T21:22:58.185Z,4.15
2022-11-14T21:26:10.839Z,4.50
2022-11-14T21:29:15.516Z,4.32
2022-11-14T21:32:21.002Z,3.78
2022-11-14T21:35:30.268Z,4.18
2022-11-14T21:38:35.178Z,5.22
2022-11-14T21:41:39.563Z,4.70
2022-11-14T21:44:46.882Z,4.45
2022-11-14T21:47:51.113Z,3.70
2022-11-14T21:51:21.389Z,4.32
2022-11-14T21:54:25.898Z,4.57
2022-11-14T21:57:30.282Z,3.60
2022-11-14T22:00:35.305Z,3.72
2022-11-14T22:03:59.943Z,4.47
2022-11-14T22:07:06.932Z,4.55
2022-11-14T22:10:11.450Z,4.32
2022-11-14T22:13:21.342Z,3.33
2022-11-14T22:16:25.834Z,3.13
2022-11-14T22:19:31.118Z,4.20
2022-11-14T22:22:35.865Z,3.15
2022-11-14T22:25:40.062Z,3.30
2022-11-14T22:28:44.662Z,4.13
2022-11-14T22:31:52.708Z,3.75
2022-11-14T22:34:57.587Z,8.70
2022-11-14T22:38:02.144Z,3.58
2022-11-14T22:41:12.125Z,3.35
2022-11-14T22:44:17.140Z,4.00
2022-11-14T22:47:21.754Z,3.42
2022-11-14T22:50:26.187Z,5.32
2022-11-14T22:53:33.465Z,3.55
2022-11-14T22:56:38.582Z,3.85
2022-11-14T22:59:43.001Z,3.33
2022-11-14T23:02:47.520Z,4.45
2022-11-14T23:05:52.645Z,2.85
2022-11-14T23:08:58.149Z,3.35
2022-11-14T23:12:02.443Z,3.00
2022-11-14T23:15:07.315Z,3.90
2022-11-14T23:18:12.167Z,6.97
2022-11-14T23:21:22.756Z,5.78
2022-11-14T23:24:27.079Z,3.47
2022-11-14T23:27:31.419Z,4.93
2022-11-14T23:30:36.208Z,3.60
2022-11-14T23:33:40.429Z,6.22
2022-11-14T23:36:46.017Z,3.80
2022-11-14T23:39:50.344Z,4.97
2022-11-14T23:42:54.672Z,4.47
2022-11-14T23:45:59.116Z,4.75
2022-11-14T23:49:03.764Z,4.00
2022-11-14T23:52:08.846Z,5.75
2022-11-14T23:55:14.203Z,4.20
2022-11-14T23:58:20.161Z,3.47
